Time,TemperatureF,DewpointF,PressureIn,WindDirection,WindDirectionDegrees,WindSpeedMPH,WindSpeedGustMPH,Humidity,HourlyPrecipIn,Conditions,Clouds,dailyrainin,SoftwareType,DateUTC
2013-08-29 00:00:00,73.0,71.0,29.88,North,0,0.0,1.0,93,0.00,,,0.00,TxWx,2013-08-29 04:00:00,
2013-08-29 00:11:00,72.0,70.0,29.88,NNW,337,1.0,1.0,94,0.00,,,0.00,TxWx,2013-08-29 04:11:00,
2013-08-29 00:17:00,72.0,70.0,29.88,NNW,337,1.0,1.0,94,0.00,,,0.00,TxWx,2013-08-29 04:17:00,
2013-08-29 00:22:00,72.0,70.0,29.88,NNE,22,1.0,1.0,94,0.00,,,0.00,TxWx,2013-08-29 04:22:00,
2013-08-29 00:28:00,72.0,70.0,29.88,NW,315,0.0,0.0,94,0.00,,,0.00,TxWx,2013-08-29 04:28:00,
2013-08-29 00:33:00,72.0,70.0,29.89,WNW,292,0.0,0.0,94,0.00,,,0.00,TxWx,2013-08-29 04:33:00,
2013-08-29 00:38:00,72.0,70.0,29.89,WNW,292,0.0,0.0,94,0.00,,,0.00,TxWx,2013-08-29 04:38:00,
2013-08-29 00:43:00,72.0,70.0,29.89,South,180,1.0,1.0,95,0.00,,,0.00,TxWx,2013-08-29 04:43:00,
2013-08-29 00:48:00,72.0,70.0,29.89,ESE,112,0.0,1.0,95,0.00,,,0.00,TxWx,2013-08-29 04:48:00,
2013-08-29 00:53:00,72.0,70.0,29.89,WSW,247,1.0,1.0,95,0.00,,,0.00,TxWx,2013-08-29 04:53:00,
2013-08-29 00:58:00,72.0,70.0,29.89,SE,135,2.0,2.0,95,0.00,,,0.00,TxWx,2013-08-29 04:58:00,
2013-08-29 01:03:00,72.0,70.0,29.89,ESE,112,1.0,1.0,95,0.00,,,0.00,TxWx,2013-08-29 05:03:00,
2013-08-29 01:09:00,72.0,70.0,29.89,SSE,157,0.0,1.0,95,0.00,,,0.00,TxWx,2013-08-29 05:09:00,
2013-08-29 01:14:00,72.0,70.0,29.90,SE,135,0.0,1.0,95,0.00,,,0.00,TxWx,2013-08-29 05:14:00,
2013-08-29 01:19:00,72.0,70.0,29.90,SE,135,2.0,2.0,95,0.00,,,0.00,TxWx,2013-08-29 05:19:00,
2013-08-29 01:24:00,72.0,71.0,29.90,SE,135,3.0,3.0,96,0.00,,,0.00,TxWx,2013-08-29 05:24:00,
2013-08-29 01:29:00,73.0,72.0,29.90,SSW,202,2.0,2.0,96,0.00,,,0.00,TxWx,2013-08-29 05:29:00,
2013-08-29 01:34:00,72.0,71.0,29.90,WSW,247,1.0,1.0,96,0.00,,,0.00,TxWx,2013-08-29 05:34:00,
2013-08-29 01:39:00,72.0,71.0,29.90,South,180,1.0,2.0,96,0.00,,,0.00,TxWx,2013-08-29 05:39:00,
2013-08-29 01:44:00,72.0,71.0,29.91,SE,135,3.0,3.0,96,0.00,,,0.00,TxWx,2013-08-29 05:44:00,
2013-08-29 01:49:00,72.0,71.0,29.91,SW,225,3.0,3.0,96,0.00,,,0.00,TxWx,2013-08-29 05:49:00,
2013-08-29 01:55:00,72.0,71.0,29.91,SSW,202,3.0,3.0,96,0.00,,,0.00,TxWx,2013-08-29 05:55:00,
2013-08-29 02:00:00,72.0,71.0,29.91,WNW,292,2.0,3.0,96,0.00,,,0.00,TxWx,2013-08-29 06:00:00,
2013-08-29 02:05:00,72.0,71.0,29.91,SSW,202,1.0,1.0,96,0.00,,,0.00,TxWx,2013-08-29 06:05:00,
2013-08-29 02:10:00,72.0,71.0,29.91,WNW,292,1.0,1.0,96,0.00,,,0.00,TxWx,2013-08-29 06:10:00,
2013-08-29 02:15:00,72.0,71.0,29.91,North,0,1.0,2.0,96,0.00,,,0.00,TxWx,2013-08-29 06:15:00,
2013-08-29 02:20:00,72.0,71.0,29.91,ENE,67,1.0,2.0,96,0.00,,,0.00,TxWx,2013-08-29 06:20:00,
2013-08-29 02:25:00,72.0,71.0,29.91,East,90,3.0,3.0,96,0.00,,,0.00,TxWx,2013-08-29 06:25:00,
2013-08-29 02:30:00,72.0,71.0,29.91,ESE,112,2.0,2.0,97,0.00,,,0.00,TxWx,2013-08-29 06:30:00,
2013-08-29 02:36:00,72.0,71.0,29.91,SSE,157,0.0,1.0,97,0.00,,,0.00,TxWx,2013-08-29 06:36:00,
2013-08-29 02:41:00,72.0,71.0,29.90,NNE,22,2.0,3.0,97,0.00,,,0.00,TxWx,2013-08-29 06:41:00,
2013-08-29 02:46:00,72.0,71.0,29.90,NW,315,1.0,1.0,97,0.00,,,0.00,TxWx,2013-08-29 06:46:00,
2013-08-29 02:51:00,72.0,71.0,29.90,NNW,337,1.0,2.0,97,0.00,,,0.00,TxWx,2013-08-29 06:51:00,
2013-08-29 02:56:00,72.0,71.0,29.90,NE,45,2.0,2.0,97,0.00,,,0.00,TxWx,2013-08-29 06:56:00,
2013-08-29 03:01:00,72.0,71.0,29.90,NNW,337,1.0,1.0,97,0.00,,,0.00,TxWx,2013-08-29 07:01:00,
2013-08-29 03:06:00,72.0,71.0,29.90,NNE,22,1.0,1.0,97,0.00,,,0.00,TxWx,2013-08-29 07:06:00,
2013-08-29 03:12:00,72.0,71.0,29.90,NNE,22,1.0,2.0,97,0.00,,,0.00,TxWx,2013-08-29 07:12:00,
2013-08-29 03:17:00,72.0,71.0,29.90,ENE,67,3.0,3.0,97,0.00,,,0.00,TxWx,2013-08-29 07:17:00,
2013-08-29 03:22:00,72.0,71.0,29.90,East,90,3.0,3.0,97,0.00,,,0.00,TxWx,2013-08-29 07:22:00,
2013-08-29 03:27:00,72.0,71.0,29.89,West,270,0.0,1.0,97,0.00,,,0.00,TxWx,2013-08-29 07:27:00,
2013-08-29 03:32:00,72.0,71.0,29.90,West,270,1.0,1.0,97,0.00,,,0.00,TxWx,2013-08-29 07:32:00,
2013-08-29 03:37:00,72.0,71.0,29.90,NW,315,1.0,1.0,97,0.00,,,0.00,TxWx,2013-08-29 07:37:00,
2013-08-29 03:42:00,71.0,70.0,29.90,SSW,202,0.0,0.0,97,0.00,,,0.00,TxWx,2013-08-29 07:42:00,
2013-08-29 03:47:00,71.0,70.0,29.90,SW,225,1.0,1.0,97,0.00,,,0.00,TxWx,2013-08-29 07:47:00,
2013-08-29 03:53:00,71.0,70.0,29.90,SE,135,0.0,0.0,97,0.00,,,0.00,TxWx,2013-08-29 07:53:00,
2013-08-29 03:58:00,71.0,70.0,29.90,ESE,112,0.0,1.0,98,0.00,,,0.00,TxWx,2013-08-29 07:58:00,
2013-08-29 04:03:00,71.0,70.0,29.90,ESE,112,3.0,3.0,97,0.00,,,0.00,TxWx,2013-08-29 08:03:00,
2013-08-29 04:08:00,71.0,70.0,29.90,SE,135,2.0,2.0,98,0.00,,,0.00,TxWx,2013-08-29 08:08:00,
2013-08-29 04:13:00,71.0,70.0,29.90,East,90,0.0,1.0,98,0.00,,,0.00,TxWx,2013-08-29 08:13:00,
2013-08-29 04:18:00,71.0,70.0,29.90,SE,135,1.0,1.0,98,0.00,,,0.00,TxWx,2013-08-29 08:18:00,
2013-08-29 04:23:00,71.0,70.0,29.91,West,270,2.0,2.0,97,0.00,,,0.00,TxWx,2013-08-29 08:23:00,
2013-08-29 04:29:00,71.0,70.0,29.91,SE,135,0.0,0.0,97,0.00,,,0.00,TxWx,2013-08-29 08:29:00,
2013-08-29 04:34:00,71.0,70.0,29.91,ENE,67,1.0,1.0,97,0.00,,,0.00,TxWx,2013-08-29 08:34:00,
2013-08-29 04:39:00,71.0,70.0,29.91,South,180,0.0,0.0,97,0.00,,,0.00,TxWx,2013-08-29 08:39:00,
2013-08-29 04:44:00,70.0,69.0,29.91,WSW,247,0.0,0.0,97,0.00,,,0.00,TxWx,2013-08-29 08:44:00,
2013-08-29 04:49:00,70.0,69.0,29.92,West,270,0.0,0.0,98,0.00,,,0.00,TxWx,2013-08-29 08:49:00,
2013-08-29 04:54:00,70.0,69.0,29.92,SSW,202,0.0,0.0,98,0.00,,,0.00,TxWx,2013-08-29 08:54:00,
2013-08-29 04:59:00,70.0,69.0,29.92,SSE,157,0.0,0.0,98,0.00,,,0.00,TxWx,2013-08-29 08:59:00,
2013-08-29 05:04:00,70.0,69.0,29.92,SE,135,0.0,0.0,98,0.00,,,0.00,TxWx,2013-08-29 09:04:00,
2013-08-29 05:09:00,70.0,69.0,29.92,NNE,22,0.0,0.0,98,0.00,,,0.00,TxWx,2013-08-29 09:09:00,
2013-08-29 05:15:00,70.0,69.0,29.92,WNW,292,0.0,0.0,98,0.00,,,0.00,TxWx,2013-08-29 09:15:00,
2013-08-29 05:16:00,81.0,71.0,29.98,ESE,112,3.0,3.0,71,0.00,,,0.00,TxWx,2013-08-29 09:16:00,
2013-08-29 05:17:00,81.0,71.0,29.98,SE,135,5.0,5.0,71,0.00,,,0.00,TxWx,2013-08-29 09:17:00,
2013-08-29 05:18:00,81.0,71.0,29.98,ESE,112,5.0,6.0,71,0.00,,,0.00,TxWx,2013-08-29 09:18:00,
2013-08-29 05:19:00,81.0,70.0,29.98,SE,135,4.0,4.0,70,0.00,,,0.00,TxWx,2013-08-29 09:19:00,
2013-08-29 05:20:00,70.0,69.0,29.92,SW,225,1.0,1.0,98,0.00,,,0.00,TxWx,2013-08-29 09:20:00,
2013-08-29 05:24:00,81.0,70.0,29.98,SSW,202,5.0,6.0,70,0.00,,,0.00,TxWx,2013-08-29 09:24:00,
2013-08-29 05:25:00,70.0,69.0,29.92,NW,315,1.0,1.0,98,0.00,,,0.00,TxWx,2013-08-29 09:25:00,
2013-08-29 05:26:00,81.0,70.0,29.98,SSW,202,5.0,5.0,70,0.00,,,0.00,TxWx,2013-08-29 09:26:00,
2013-08-29 05:28:00,81.0,70.0,29.98,South,180,3.0,4.0,70,0.00,,,0.00,TxWx,2013-08-29 09:28:00,
2013-08-29 05:29:00,81.0,70.0,29.98,SSE,157,3.0,4.0,70,0.00,,,0.00,TxWx,2013-08-29 09:29:00,
2013-08-29 05:30:00,70.0,69.0,29.92,NNW,337,1.0,1.0,98,0.00,,,0.00,TxWx,2013-08-29 09:30:00,
2013-08-29 05:31:00,82.0,71.0,29.98,South,180,4.0,4.0,70,0.00,,,0.00,TxWx,2013-08-29 09:31:00,
2013-08-29 05:32:00,82.0,71.0,29.98,South,180,3.0,3.0,70,0.00,,,0.00,TxWx,2013-08-29 09:32:00,
2013-08-29 05:35:00,70.0,69.0,29.92,NW,315,1.0,1.0,98,0.00,,,0.00,TxWx,2013-08-29 09:35:00,
2013-08-29 05:40:00,69.0,68.0,29.93,NNW,337,1.0,2.0,98,0.00,,,0.00,TxWx,2013-08-29 09:40:00,
2013-08-29 05:45:00,69.0,68.0,29.93,NNW,337,1.0,1.0,98,0.00,,,0.00,TxWx,2013-08-29 09:45:00,
2013-08-29 05:51:00,69.0,68.0,29.93,SE,135,0.0,1.0,98,0.00,,,0.00,TxWx,2013-08-29 09:51:00,
2013-08-29 05:56:00,69.0,68.0,29.93,South,180,1.0,1.0,98,0.00,,,0.00,TxWx,2013-08-29 09:56:00,
2013-08-29 06:01:00,69.0,68.0,29.94,West,270,1.0,2.0,98,0.00,,,0.00,TxWx,2013-08-29 10:01:00,
2013-08-29 06:06:00,69.0,68.0,29.94,NNE,22,1.0,1.0,98,0.00,,,0.00,TxWx,2013-08-29 10:06:00,
2013-08-29 06:11:00,69.0,68.0,29.94,NNE,22,1.0,1.0,98,0.00,,,0.00,TxWx,2013-08-29 10:11:00,
2013-08-29 06:16:00,69.0,68.0,29.94,WNW,292,0.0,0.0,98,0.00,,,0.00,TxWx,2013-08-29 10:16:00,
2013-08-29 06:21:00,69.0,68.0,29.94,North,0,0.0,0.0,98,0.00,,,0.00,TxWx,2013-08-29 10:21:00,
2013-08-29 06:26:00,69.0,68.0,29.95,North,0,0.0,0.0,98,0.00,,,0.00,TxWx,2013-08-29 10:26:00,
2013-08-29 06:31:00,69.0,68.0,29.95,North,0,0.0,0.0,98,0.00,,,0.00,TxWx,2013-08-29 10:31:00,
2013-08-29 06:37:00,69.0,68.0,29.95,NW,315,0.0,0.0,98,0.00,,,0.00,TxWx,2013-08-29 10:37:00,
2013-08-29 06:42:00,70.0,69.0,29.95,NW,315,0.0,1.0,98,0.00,,,0.00,TxWx,2013-08-29 10:42:00,
2013-08-29 06:47:00,70.0,69.0,29.96,ENE,67,1.0,1.0,98,0.00,,,0.00,TxWx,2013-08-29 10:47:00,
2013-08-29 06:52:00,70.0,69.0,29.96,NW,315,1.0,1.0,98,0.00,,,0.00,TxWx,2013-08-29 10:52:00,
2013-08-29 06:57:00,70.0,69.0,29.96,NW,315,1.0,1.0,98,0.00,,,0.00,TxWx,2013-08-29 10:57:00,
2013-08-29 07:02:00,70.0,69.0,29.96,NNE,22,1.0,1.0,98,0.00,,,0.00,TxWx,2013-08-29 11:02:00,
2013-08-29 07:07:00,70.0,69.0,29.96,ENE,67,1.0,1.0,98,0.00,,,0.00,TxWx,2013-08-29 11:07:00,
2013-08-29 07:12:00,70.0,69.0,29.96,North,0,0.0,1.0,98,0.00,,,0.00,TxWx,2013-08-29 11:12:00,
2013-08-29 07:18:00,70.0,69.0,29.97,WNW,292,1.0,1.0,98,0.00,,,0.00,TxWx,2013-08-29 11:18:00,
2013-08-29 07:23:00,70.0,69.0,29.97,NNE,22,1.0,1.0,98,0.00,,,0.00,TxWx,2013-08-29 11:23:00,
2013-08-29 07:28:00,71.0,70.0,29.97,SE,135,1.0,1.0,98,0.00,,,0.00,TxWx,2013-08-29 11:28:00,
2013-08-29 07:33:00,71.0,70.0,29.97,SE,135,1.0,1.0,98,0.00,,,0.00,TxWx,2013-08-29 11:33:00,
2013-08-29 07:38:00,71.0,70.0,29.97,ESE,112,3.0,3.0,98,0.00,,,0.00,TxWx,2013-08-29 11:38:00,
2013-08-29 07:43:00,71.0,70.0,29.97,ESE,112,3.0,3.0,98,0.00,,,0.00,TxWx,2013-08-29 11:43:00,
2013-08-29 07:48:00,71.0,70.0,29.97,SE,135,1.0,2.0,98,0.00,,,0.00,TxWx,2013-08-29 11:48:00,
2013-08-29 07:53:00,71.0,70.0,29.97,East,90,1.0,1.0,98,0.00,,,0.00,TxWx,2013-08-29 11:53:00,
2013-08-29 07:58:00,71.0,70.0,29.98,South,180,1.0,2.0,98,0.00,,,0.00,TxWx,2013-08-29 11:58:00,
2013-08-29 08:04:00,71.0,70.0,29.98,SE,135,2.0,3.0,98,0.00,,,0.00,TxWx,2013-08-29 12:04:00,
2013-08-29 08:09:00,71.0,70.0,29.98,SE,135,2.0,3.0,98,0.00,,,0.00,TxWx,2013-08-29 12:09:00,
2013-08-29 08:14:00,71.0,70.0,29.98,SE,135,3.0,3.0,98,0.00,,,0.00,TxWx,2013-08-29 12:14:00,
2013-08-29 08:19:00,72.0,71.0,29.98,SE,135,1.0,2.0,98,0.00,,,0.00,TxWx,2013-08-29 12:19:00,
2013-08-29 08:24:00,72.0,71.0,29.99,SE,135,3.0,3.0,98,0.00,,,0.00,TxWx,2013-08-29 12:24:00,
2013-08-29 08:29:00,72.0,71.0,29.99,ESE,112,3.0,3.0,98,0.00,,,0.00,TxWx,2013-08-29 12:29:00,
2013-08-29 08:34:00,72.0,71.0,29.99,SE,135,3.0,3.0,98,0.00,,,0.00,TxWx,2013-08-29 12:34:00,
2013-08-29 08:39:00,72.0,71.0,29.99,SE,135,2.0,3.0,98,0.00,,,0.00,TxWx,2013-08-29 12:39:00,
2013-08-29 08:45:00,72.0,71.0,29.99,SE,135,3.0,4.0,98,0.00,,,0.00,TxWx,2013-08-29 12:45:00,
2013-08-29 08:50:00,72.0,71.0,29.99,SSE,157,3.0,3.0,98,0.00,,,0.00,TxWx,2013-08-29 12:50:00,
2013-08-29 08:55:00,73.0,72.0,30.00,SE,135,3.0,3.0,97,0.00,,,0.00,TxWx,2013-08-29 12:55:00,
2013-08-29 09:00:00,73.0,72.0,30.00,SSW,202,3.0,3.0,97,0.00,,,0.00,TxWx,2013-08-29 13:00:00,
2013-08-29 09:05:00,73.0,72.0,30.00,SE,135,2.0,3.0,96,0.00,,,0.00,TxWx,2013-08-29 13:05:00,
2013-08-29 09:10:00,73.0,72.0,30.00,SE,135,1.0,1.0,96,0.00,,,0.00,TxWx,2013-08-29 13:10:00,
2013-08-29 09:15:00,73.0,71.0,30.00,NW,315,1.0,1.0,95,0.00,,,0.00,TxWx,2013-08-29 13:15:00,
2013-08-29 09:21:00,73.0,71.0,30.00,SE,135,3.0,3.0,95,0.00,,,0.00,TxWx,2013-08-29 13:21:00,
2013-08-29 09:26:00,73.0,71.0,30.00,SW,225,1.0,2.0,94,0.00,,,0.00,TxWx,2013-08-29 13:26:00,
2013-08-29 09:31:00,73.0,71.0,30.00,South,180,3.0,3.0,94,0.00,,,0.00,TxWx,2013-08-29 13:31:00,
2013-08-29 09:36:00,73.0,71.0,30.00,South,180,1.0,2.0,94,0.00,,,0.00,TxWx,2013-08-29 13:36:00,
2013-08-29 09:41:00,73.0,71.0,30.00,South,180,3.0,4.0,93,0.00,,,0.00,TxWx,2013-08-29 13:41:00,
2013-08-29 09:46:00,73.0,71.0,30.00,SE,135,1.0,2.0,93,0.00,,,0.00,TxWx,2013-08-29 13:46:00,
2013-08-29 09:51:00,73.0,71.0,30.00,South,180,3.0,4.0,93,0.00,,,0.00,TxWx,2013-08-29 13:51:00,
2013-08-29 09:57:00,74.0,72.0,30.00,ESE,112,3.0,3.0,92,0.00,,,0.00,TxWx,2013-08-29 13:57:00,
2013-08-29 10:02:00,74.0,72.0,30.01,SSE,157,3.0,3.0,92,0.00,,,0.00,TxWx,2013-08-29 14:02:00,
2013-08-29 10:07:00,74.0,71.0,30.01,SSE,157,2.0,2.0,92,0.00,,,0.00,TxWx,2013-08-29 14:07:00,
2013-08-29 10:12:00,74.0,71.0,30.01,SE,135,4.0,5.0,91,0.00,,,0.00,TxWx,2013-08-29 14:12:00,
2013-08-29 10:17:00,74.0,71.0,30.01,SE,135,3.0,3.0,90,0.00,,,0.00,TxWx,2013-08-29 14:17:00,
2013-08-29 10:22:00,74.0,71.0,30.01,SW,225,3.0,3.0,89,0.00,,,0.00,TxWx,2013-08-29 14:22:00,
2013-08-29 10:27:00,74.0,70.0,30.01,South,180,3.0,3.0,88,0.00,,,0.00,TxWx,2013-08-29 14:27:00,
2013-08-29 10:32:00,74.0,70.0,30.01,SSW,202,1.0,1.0,87,0.00,,,0.00,TxWx,2013-08-29 14:32:00,
2013-08-29 10:38:00,75.0,71.0,30.01,ESE,112,3.0,3.0,86,0.00,,,0.00,TxWx,2013-08-29 14:38:00,
2013-08-29 10:43:00,75.0,70.0,30.01,SE,135,3.0,3.0,85,0.00,,,0.00,TxWx,2013-08-29 14:43:00,
2013-08-29 10:48:00,75.0,70.0,30.01,SW,225,1.0,2.0,85,0.00,,,0.00,TxWx,2013-08-29 14:48:00,
2013-08-29 10:53:00,76.0,71.0,30.01,North,0,2.0,2.0,84,0.00,,,0.00,TxWx,2013-08-29 14:53:00,
2013-08-29 10:58:00,76.0,70.0,30.01,South,180,3.0,3.0,82,0.00,,,0.00,TxWx,2013-08-29 14:58:00,
2013-08-29 11:03:00,76.0,70.0,30.01,SSE,157,1.0,2.0,81,0.00,,,0.00,TxWx,2013-08-29 15:03:00,
2013-08-29 11:08:00,76.0,70.0,30.01,SE,135,3.0,5.0,81,0.00,,,0.00,TxWx,2013-08-29 15:08:00,
2013-08-29 11:14:00,76.0,69.0,30.01,SE,135,5.0,5.0,80,0.00,,,0.00,TxWx,2013-08-29 15:14:00,
2013-08-29 11:19:00,76.0,69.0,30.01,SE,135,4.0,4.0,80,0.00,,,0.00,TxWx,2013-08-29 15:19:00,
2013-08-29 11:24:00,76.0,69.0,30.01,SW,225,2.0,2.0,80,0.00,,,0.00,TxWx,2013-08-29 15:24:00,
2013-08-29 11:29:00,76.0,69.0,30.01,South,180,2.0,3.0,80,0.00,,,0.00,TxWx,2013-08-29 15:29:00,
2013-08-29 11:34:00,76.0,69.0,30.01,SSE,157,2.0,3.0,79,0.00,,,0.00,TxWx,2013-08-29 15:34:00,
2013-08-29 11:39:00,76.0,69.0,30.01,South,180,4.0,4.0,79,0.00,,,0.00,TxWx,2013-08-29 15:39:00,
2013-08-29 11:44:00,76.0,69.0,30.01,SSE,157,4.0,5.0,79,0.00,,,0.00,TxWx,2013-08-29 15:44:00,
2013-08-29 11:49:00,77.0,70.0,30.01,South,180,5.0,5.0,78,0.00,,,0.00,TxWx,2013-08-29 15:49:00,
2013-08-29 11:54:00,77.0,70.0,30.01,SW,225,2.0,3.0,78,0.00,,,0.00,TxWx,2013-08-29 15:54:00,
2013-08-29 11:59:00,77.0,69.0,30.01,SE,135,3.0,4.0,78,0.00,,,0.00,TxWx,2013-08-29 15:59:00,
2013-08-29 12:05:00,77.0,70.0,30.01,SE,135,3.0,3.0,78,0.00,,,0.00,TxWx,2013-08-29 16:05:00,
2013-08-29 12:10:00,77.0,69.0,30.01,ESE,112,2.0,3.0,78,0.00,,,0.00,TxWx,2013-08-29 16:10:00,
2013-08-29 12:15:00,78.0,70.0,30.01,East,90,2.0,2.0,77,0.00,,,0.00,TxWx,2013-08-29 16:15:00,
2013-08-29 12:20:00,78.0,70.0,30.01,ESE,112,1.0,1.0,77,0.00,,,0.00,TxWx,2013-08-29 16:20:00,
2013-08-29 12:25:00,78.0,70.0,30.01,WNW,292,1.0,2.0,77,0.00,,,0.00,TxWx,2013-08-29 16:25:00,
2013-08-29 12:30:00,78.0,70.0,30.01,South,180,3.0,3.0,76,0.00,,,0.00,TxWx,2013-08-29 16:30:00,
2013-08-29 12:35:00,78.0,70.0,30.00,SSW,202,2.0,3.0,76,0.00,,,0.00,TxWx,2013-08-29 16:35:00,
2013-08-29 12:41:00,79.0,71.0,30.01,ESE,112,2.0,2.0,76,0.00,,,0.00,TxWx,2013-08-29 16:41:00,
2013-08-29 12:46:00,79.0,70.0,30.00,SSW,202,4.0,5.0,75,0.00,,,0.00,TxWx,2013-08-29 16:46:00,
2013-08-29 12:51:00,79.0,70.0,30.00,WSW,247,1.0,2.0,75,0.00,,,0.00,TxWx,2013-08-29 16:51:00,
2013-08-29 12:56:00,79.0,70.0,30.00,North,0,1.0,1.0,75,0.00,,,0.00,TxWx,2013-08-29 16:56:00,
2013-08-29 13:01:00,80.0,71.0,30.00,SSW,202,4.0,5.0,74,0.00,,,0.00,TxWx,2013-08-29 17:01:00,
2013-08-29 13:06:00,80.0,71.0,30.00,WNW,292,3.0,3.0,74,0.00,,,0.00,TxWx,2013-08-29 17:06:00,
2013-08-29 13:11:00,80.0,71.0,30.00,West,270,1.0,2.0,74,0.00,,,0.00,TxWx,2013-08-29 17:11:00,
2013-08-29 13:16:00,80.0,71.0,29.99,SE,135,1.0,1.0,73,0.00,,,0.00,TxWx,2013-08-29 17:16:00,
2013-08-29 13:21:00,80.0,71.0,30.00,SSW,202,6.0,6.0,73,0.00,,,0.00,TxWx,2013-08-29 17:21:00,
2013-08-29 13:27:00,81.0,71.0,30.00,ESE,112,2.0,3.0,73,0.00,,,0.00,TxWx,2013-08-29 17:27:00,
2013-08-29 13:32:00,82.0,72.0,30.00,East,90,3.0,3.0,72,0.00,,,0.00,TxWx,2013-08-29 17:32:00,
2013-08-29 13:37:00,82.0,71.0,29.99,SSE,157,4.0,5.0,69,0.00,,,0.00,TxWx,2013-08-29 17:37:00,
2013-08-29 13:42:00,82.0,70.0,29.99,SSE,157,4.0,4.0,68,0.00,,,0.00,TxWx,2013-08-29 17:42:00,
2013-08-29 13:47:00,82.0,71.0,29.99,NE,45,3.0,3.0,69,0.00,,,0.00,TxWx,2013-08-29 17:47:00,
2013-08-29 13:52:00,81.0,70.0,29.99,ESE,112,6.0,6.0,69,0.00,,,0.00,TxWx,2013-08-29 17:52:00,
2013-08-29 13:57:00,81.0,70.0,29.99,SSE,157,3.0,5.0,69,0.00,,,0.00,TxWx,2013-08-29 17:57:00,
2013-08-29 14:02:00,81.0,70.0,29.99,East,90,4.0,4.0,70,0.00,,,0.00,TxWx,2013-08-29 18:02:00,
2013-08-29 14:07:00,81.0,71.0,29.99,SE,135,5.0,6.0,71,0.00,,,0.00,TxWx,2013-08-29 18:07:00,
2013-08-29 14:13:00,81.0,71.0,29.98,East,90,4.0,4.0,72,0.00,,,0.00,TxWx,2013-08-29 18:13:00,
2013-08-29 14:18:00,81.0,71.0,29.98,ESE,112,6.0,6.0,71,0.00,,,0.00,TxWx,2013-08-29 18:18:00,
2013-08-29 14:23:00,81.0,70.0,29.98,SSW,202,5.0,5.0,70,0.00,,,0.00,TxWx,2013-08-29 18:23:00,
2013-08-29 14:29:00,81.0,70.0,29.98,SSE,157,4.0,5.0,71,0.00,,,0.00,TxWx,2013-08-29 18:29:00,
2013-08-29 14:34:00,82.0,71.0,29.98,WNW,292,1.0,2.0,70,0.00,,,0.00,TxWx,2013-08-29 18:34:00,
2013-08-29 14:39:00,82.0,71.0,29.98,WNW,292,3.0,4.0,70,0.00,,,0.00,TxWx,2013-08-29 18:39:00,
2013-08-29 14:44:00,83.0,71.0,29.98,SSE,157,3.0,4.0,68,0.00,,,0.00,TxWx,2013-08-29 18:44:00,
2013-08-29 14:49:00,82.0,70.0,29.98,ESE,112,5.0,6.0,68,0.00,,,0.00,TxWx,2013-08-29 18:49:00,
2013-08-29 14:54:00,82.0,70.0,29.98,ENE,67,3.0,3.0,68,0.00,,,0.00,TxWx,2013-08-29 18:54:00,
2013-08-29 14:59:00,82.0,70.0,29.97,NW,315,1.0,1.0,68,0.00,,,0.00,TxWx,2013-08-29 18:59:00,
2013-08-29 15:00:00,73.0,69.0,29.98,NW,315,1.0,1.0,88,0.00,,,0.00,TxWx,2013-08-29 19:00:00,
2013-08-29 15:01:00,73.0,69.0,29.98,NW,315,1.0,1.0,88,0.00,,,0.00,TxWx,2013-08-29 19:01:00,
2013-08-29 15:02:00,73.0,69.0,29.98,West,270,2.0,2.0,88,0.00,,,0.00,TxWx,2013-08-29 19:02:00,
2013-08-29 15:03:00,73.0,69.0,29.98,NW,315,1.0,2.0,88,0.00,,,0.00,TxWx,2013-08-29 19:03:00,
2013-08-29 15:04:00,82.0,70.0,29.97,East,90,5.0,5.0,67,0.00,,,0.00,TxWx,2013-08-29 19:04:00,
2013-08-29 15:05:00,73.0,69.0,29.98,NW,315,1.0,1.0,88,0.00,,,0.00,TxWx,2013-08-29 19:05:00,
2013-08-29 15:06:00,73.0,69.0,29.98,NNW,337,1.0,1.0,88,0.00,,,0.00,TxWx,2013-08-29 19:06:00,
2013-08-29 15:07:00,73.0,69.0,29.98,NW,315,1.0,1.0,88,0.00,,,0.00,TxWx,2013-08-29 19:07:00,
2013-08-29 15:08:00,73.0,69.0,29.98,NW,315,1.0,1.0,88,0.00,,,0.00,TxWx,2013-08-29 19:08:00,
2013-08-29 15:09:00,82.0,70.0,29.97,NE,45,1.0,1.0,68,0.00,,,0.00,TxWx,2013-08-29 19:09:00,
2013-08-29 15:10:00,73.0,69.0,29.98,NW,315,1.0,2.0,88,0.00,,,0.00,TxWx,2013-08-29 19:10:00,
2013-08-29 15:11:00,73.0,69.0,29.98,NNW,337,1.0,1.0,88,0.00,,,0.00,TxWx,2013-08-29 19:11:00,
2013-08-29 15:12:00,73.0,69.0,29.98,NNW,337,1.0,1.0,88,0.00,,,0.00,TxWx,2013-08-29 19:12:00,
2013-08-29 15:13:00,73.0,69.0,29.98,NW,315,1.0,2.0,88,0.00,,,0.00,TxWx,2013-08-29 19:13:00,
2013-08-29 15:14:00,73.0,69.0,29.98,WNW,292,2.0,2.0,88,0.00,,,0.00,TxWx,2013-08-29 19:14:00,
2013-08-29 15:15:00,82.0,70.0,29.97,ENE,67,1.0,1.0,68,0.00,,,0.00,TxWx,2013-08-29 19:15:00,
2013-08-29 15:16:00,73.0,69.0,29.98,NNW,337,1.0,1.0,89,0.00,,,0.00,TxWx,2013-08-29 19:16:00,
2013-08-29 15:17:00,73.0,69.0,29.98,NNW,337,2.0,2.0,89,0.00,,,0.00,TxWx,2013-08-29 19:17:00,
2013-08-29 15:18:00,73.0,69.0,29.98,NNW,337,1.0,2.0,89,0.00,,,0.00,TxWx,2013-08-29 19:18:00,
2013-08-29 15:19:00,73.0,69.0,29.98,NNW,337,2.0,4.0,89,0.00,,,0.00,TxWx,2013-08-29 19:19:00,
2013-08-29 15:20:00,83.0,71.0,29.97,SSE,157,4.0,5.0,68,0.00,,,0.00,TxWx,2013-08-29 19:20:00,
2013-08-29 15:22:00,73.0,69.0,29.98,North,0,1.0,2.0,89,0.00,,,0.00,TxWx,2013-08-29 19:22:00,
2013-08-29 15:23:00,73.0,69.0,29.98,WNW,292,1.0,2.0,89,0.00,,,0.00,TxWx,2013-08-29 19:23:00,
2013-08-29 15:24:00,73.0,69.0,29.98,NW,315,1.0,2.0,89,0.00,,,0.00,TxWx,2013-08-29 19:24:00,
2013-08-29 15:25:00,83.0,71.0,29.96,ESE,112,3.0,4.0,68,0.00,,,0.00,TxWx,2013-08-29 19:25:00,
2013-08-29 15:26:00,73.0,69.0,29.98,WNW,292,1.0,2.0,89,0.00,,,0.00,TxWx,2013-08-29 19:26:00,
2013-08-29 15:27:00,73.0,69.0,29.98,North,0,3.0,3.0,89,0.00,,,0.00,TxWx,2013-08-29 19:27:00,
2013-08-29 15:28:00,73.0,69.0,29.98,WNW,292,1.0,1.0,89,0.00,,,0.00,TxWx,2013-08-29 19:28:00,
2013-08-29 15:29:00,73.0,69.0,29.98,NW,315,1.0,2.0,89,0.00,,,0.00,TxWx,2013-08-29 19:29:00,
2013-08-29 15:30:00,83.0,71.0,29.96,SSW,202,3.0,3.0,67,0.00,,,0.00,TxWx,2013-08-29 19:30:00,
2013-08-29 15:31:00,73.0,69.0,29.98,NW,315,1.0,1.0,89,0.00,,,0.00,TxWx,2013-08-29 19:31:00,
2013-08-29 15:32:00,73.0,69.0,29.98,NW,315,1.0,2.0,89,0.00,,,0.00,TxWx,2013-08-29 19:32:00,
2013-08-29 15:33:00,73.0,69.0,29.97,NW,315,1.0,1.0,89,0.00,,,0.00,TxWx,2013-08-29 19:33:00,
2013-08-29 15:35:00,83.0,70.0,29.96,West,270,3.0,3.0,65,0.00,,,0.00,TxWx,2013-08-29 19:35:00,
2013-08-29 15:36:00,72.0,68.0,29.97,North,0,2.0,3.0,89,0.00,,,0.00,TxWx,2013-08-29 19:36:00,
2013-08-29 15:37:00,73.0,69.0,29.97,NW,315,1.0,2.0,89,0.00,,,0.00,TxWx,2013-08-29 19:37:00,
2013-08-29 15:38:00,73.0,70.0,29.97,WNW,292,3.0,3.0,89,0.00,,,0.00,TxWx,2013-08-29 19:38:00,
2013-08-29 15:39:00,73.0,70.0,29.97,WNW,292,2.0,2.0,89,0.00,,,0.00,TxWx,2013-08-29 19:39:00,
2013-08-29 15:40:00,83.0,70.0,29.96,WNW,292,1.0,2.0,65,0.00,,,0.00,TxWx,2013-08-29 19:40:00,
2013-08-29 15:41:00,72.0,69.0,29.97,WNW,292,2.0,3.0,89,0.00,,,0.00,TxWx,2013-08-29 19:41:00,
2013-08-29 15:42:00,72.0,69.0,29.97,WNW,292,3.0,3.0,89,0.00,,,0.00,TxWx,2013-08-29 19:42:00,
2013-08-29 15:43:00,73.0,70.0,29.97,North,0,1.0,1.0,89,0.00,,,0.00,TxWx,2013-08-29 19:43:00,
2013-08-29 15:45:00,84.0,71.0,29.96,NNE,22,1.0,2.0,65,0.00,,,0.00,TxWx,2013-08-29 19:45:00,
2013-08-29 15:46:00,73.0,70.0,29.97,West,270,2.0,2.0,89,0.00,,,0.00,TxWx,2013-08-29 19:46:00,
2013-08-29 15:49:00,73.0,70.0,29.97,WNW,292,2.0,2.0,89,0.00,,,0.00,TxWx,2013-08-29 19:49:00,
2013-08-29 15:51:00,84.0,70.0,29.96,ESE,112,2.0,3.0,64,0.00,,,0.00,TxWx,2013-08-29 19:51:00,
2013-08-29 15:56:00,84.0,71.0,29.96,SSE,157,5.0,5.0,65,0.00,,,0.00,TxWx,2013-08-29 19:56:00,
2013-08-29 16:01:00,84.0,71.0,29.96,ENE,67,3.0,3.0,65,0.00,,,0.00,TxWx,2013-08-29 20:01:00,
2013-08-29 16:06:00,83.0,70.0,29.96,ENE,67,2.0,3.0,66,0.00,,,0.00,TxWx,2013-08-29 20:06:00,
2013-08-29 16:11:00,83.0,71.0,29.96,WNW,292,1.0,1.0,67,0.00,,,0.00,TxWx,2013-08-29 20:11:00,
2013-08-29 16:16:00,83.0,71.0,29.96,SW,225,1.0,1.0,68,0.00,,,0.00,TxWx,2013-08-29 20:16:00,
2013-08-29 16:21:00,83.0,71.0,29.96,SW,225,3.0,3.0,67,0.00,,,0.00,TxWx,2013-08-29 20:21:00,
2013-08-29 16:26:00,83.0,70.0,29.96,WSW,247,2.0,2.0,66,0.00,,,0.00,TxWx,2013-08-29 20:26:00,
2013-08-29 16:31:00,83.0,70.0,29.95,West,270,1.0,2.0,66,0.00,,,0.00,TxWx,2013-08-29 20:31:00,
2013-08-29 16:37:00,83.0,71.0,29.95,WNW,292,1.0,1.0,67,0.00,,,0.00,TxWx,2013-08-29 20:37:00,
2013-08-29 16:42:00,83.0,71.0,29.95,NE,45,1.0,1.0,67,0.00,,,0.00,TxWx,2013-08-29 20:42:00,
2013-08-29 16:47:00,83.0,71.0,29.96,ENE,67,2.0,2.0,68,0.00,,,0.00,TxWx,2013-08-29 20:47:00,
2013-08-29 16:52:00,83.0,71.0,29.96,ENE,67,1.0,1.0,68,0.00,,,0.00,TxWx,2013-08-29 20:52:00,
2013-08-29 16:57:00,84.0,72.0,29.96,NNE,22,1.0,1.0,67,0.00,,,0.00,TxWx,2013-08-29 20:57:00,
2013-08-29 17:02:00,84.0,71.0,29.96,WNW,292,1.0,1.0,65,0.00,,,0.00,TxWx,2013-08-29 21:02:00,
2013-08-29 17:07:00,85.0,71.0,29.96,North,0,3.0,3.0,64,0.00,,,0.00,TxWx,2013-08-29 21:07:00,
2013-08-29 17:13:00,85.0,71.0,29.96,ENE,67,1.0,2.0,64,0.00,,,0.00,TxWx,2013-08-29 21:13:00,
2013-08-29 17:18:00,85.0,71.0,29.96,East,90,2.0,3.0,63,0.00,,,0.00,TxWx,2013-08-29 21:18:00,
2013-08-29 17:23:00,85.0,72.0,29.95,NE,45,2.0,2.0,65,0.00,,,0.00,TxWx,2013-08-29 21:23:00,
2013-08-29 17:28:00,85.0,72.0,29.95,NNE,22,2.0,2.0,65,0.00,,,0.00,TxWx,2013-08-29 21:28:00,
2013-08-29 17:33:00,85.0,71.0,29.95,East,90,1.0,2.0,64,0.00,,,0.00,TxWx,2013-08-29 21:33:00,
2013-08-29 17:38:00,85.0,71.0,29.95,NE,45,1.0,2.0,64,0.00,,,0.00,TxWx,2013-08-29 21:38:00,
2013-08-29 17:43:00,85.0,71.0,29.96,ENE,67,3.0,3.0,64,0.00,,,0.00,TxWx,2013-08-29 21:43:00,
2013-08-29 17:49:00,85.0,72.0,29.95,East,90,1.0,1.0,65,0.00,,,0.00,TxWx,2013-08-29 21:49:00,
2013-08-29 17:54:00,84.0,71.0,29.95,ENE,67,1.0,1.0,65,0.00,,,0.00,TxWx,2013-08-29 21:54:00,
2013-08-29 17:59:00,84.0,71.0,29.96,NE,45,1.0,1.0,66,0.00,,,0.00,TxWx,2013-08-29 21:59:00,
2013-08-29 18:04:00,84.0,72.0,29.96,ENE,67,1.0,1.0,67,0.00,,,0.00,TxWx,2013-08-29 22:04:00,
2013-08-29 18:09:00,84.0,73.0,29.96,NNE,22,1.0,1.0,69,0.00,,,0.00,TxWx,2013-08-29 22:09:00,
2013-08-29 18:14:00,84.0,73.0,29.96,ENE,67,1.0,1.0,70,0.00,,,0.00,TxWx,2013-08-29 22:14:00,
2013-08-29 18:19:00,83.0,72.0,29.96,ENE,67,1.0,1.0,70,0.00,,,0.00,TxWx,2013-08-29 22:19:00,
2013-08-29 18:24:00,83.0,72.0,29.96,ENE,67,1.0,2.0,70,0.00,,,0.00,TxWx,2013-08-29 22:24:00,
2013-08-29 18:30:00,82.0,71.0,29.96,North,0,1.0,1.0,70,0.00,,,0.00,TxWx,2013-08-29 22:30:00,
2013-08-29 18:35:00,81.0,71.0,29.96,West,270,1.0,1.0,71,0.00,,,0.00,TxWx,2013-08-29 22:35:00,
2013-08-29 18:40:00,80.0,70.0,29.96,West,270,1.0,2.0,73,0.00,,,0.00,TxWx,2013-08-29 22:40:00,
2013-08-29 18:45:00,80.0,71.0,29.95,WSW,247,2.0,2.0,74,0.00,,,0.00,TxWx,2013-08-29 22:45:00,
2013-08-29 18:50:00,80.0,71.0,29.95,NNE,22,1.0,1.0,74,0.00,,,0.00,TxWx,2013-08-29 22:50:00,
2013-08-29 18:55:00,80.0,71.0,29.95,NNE,22,1.0,1.0,75,0.00,,,0.00,TxWx,2013-08-29 22:55:00,
2013-08-29 19:00:00,79.0,71.0,29.96,NE,45,0.0,0.0,76,0.00,,,0.00,TxWx,2013-08-29 23:00:00,
2013-08-29 19:06:00,79.0,71.0,29.96,NNE,22,0.0,1.0,77,0.00,,,0.00,TxWx,2013-08-29 23:06:00,
2013-08-29 19:11:00,78.0,71.0,29.96,NW,315,1.0,1.0,78,0.00,,,0.00,TxWx,2013-08-29 23:11:00,
2013-08-29 19:16:00,78.0,71.0,29.96,North,0,1.0,1.0,79,0.00,,,0.00,TxWx,2013-08-29 23:16:00,
2013-08-29 19:21:00,78.0,71.0,29.96,NNW,337,1.0,1.0,80,0.00,,,0.00,TxWx,2013-08-29 23:21:00,
2013-08-29 19:26:00,78.0,71.0,29.97,NW,315,1.0,1.0,81,0.00,,,0.00,TxWx,2013-08-29 23:26:00,
2013-08-29 19:31:00,77.0,71.0,29.96,NNE,22,1.0,1.0,81,0.00,,,0.00,TxWx,2013-08-29 23:31:00,
2013-08-29 19:36:00,77.0,71.0,29.96,NNW,337,1.0,1.0,82,0.00,,,0.00,TxWx,2013-08-29 23:36:00,
2013-08-29 19:41:00,77.0,71.0,29.96,West,270,1.0,1.0,83,0.00,,,0.00,TxWx,2013-08-29 23:41:00,
2013-08-29 19:47:00,77.0,71.0,29.97,West,270,0.0,0.0,83,0.00,,,0.00,TxWx,2013-08-29 23:47:00,
2013-08-29 19:52:00,76.0,71.0,29.97,North,0,1.0,2.0,84,0.00,,,0.00,TxWx,2013-08-29 23:52:00,
2013-08-29 19:57:00,76.0,71.0,29.97,NNW,337,1.0,1.0,85,0.00,,,0.00,TxWx,2013-08-29 23:57:00,
2013-08-29 20:02:00,76.0,71.0,29.97,NW,315,2.0,2.0,85,0.00,,,0.00,TxWx,2013-08-30 00:02:00,
2013-08-29 20:07:00,76.0,71.0,29.97,NNW,337,2.0,3.0,85,0.00,,,0.00,TxWx,2013-08-30 00:07:00,
2013-08-29 20:12:00,76.0,71.0,29.97,NNE,22,1.0,2.0,86,0.00,,,0.00,TxWx,2013-08-30 00:12:00,
2013-08-29 20:17:00,76.0,71.0,29.97,NW,315,1.0,1.0,86,0.00,,,0.00,TxWx,2013-08-30 00:17:00,
2013-08-29 20:22:00,76.0,71.0,29.97,NW,315,3.0,3.0,86,0.00,,,0.00,TxWx,2013-08-30 00:22:00,
2013-08-29 20:28:00,76.0,71.0,29.97,NNW,337,0.0,1.0,86,0.00,,,0.00,TxWx,2013-08-30 00:28:00,
2013-08-29 20:33:00,76.0,71.0,29.97,NW,315,1.0,1.0,86,0.00,,,0.00,TxWx,2013-08-30 00:33:00,
2013-08-29 20:38:00,76.0,71.0,29.97,North,0,1.0,2.0,86,0.00,,,0.00,TxWx,2013-08-30 00:38:00,
2013-08-29 20:43:00,76.0,71.0,29.97,NW,315,1.0,1.0,85,0.00,,,0.00,TxWx,2013-08-30 00:43:00,
2013-08-29 20:48:00,76.0,71.0,29.98,WNW,292,1.0,1.0,85,0.00,,,0.00,TxWx,2013-08-30 00:48:00,
2013-08-29 20:53:00,76.0,71.0,29.98,ENE,67,0.0,1.0,85,0.00,,,0.00,TxWx,2013-08-30 00:53:00,
2013-08-29 20:58:00,76.0,71.0,29.98,North,0,1.0,2.0,85,0.00,,,0.00,TxWx,2013-08-30 00:58:00,
2013-08-29 21:04:00,76.0,71.0,29.98,West,270,1.0,1.0,85,0.00,,,0.00,TxWx,2013-08-30 01:04:00,
2013-08-29 21:09:00,75.0,70.0,29.99,NNE,22,1.0,1.0,86,0.00,,,0.00,TxWx,2013-08-30 01:09:00,
2013-08-29 21:14:00,75.0,70.0,29.98,NE,45,1.0,1.0,86,0.00,,,0.00,TxWx,2013-08-30 01:14:00,
2013-08-29 21:19:00,75.0,70.0,29.98,North,0,1.0,1.0,86,0.00,,,0.00,TxWx,2013-08-30 01:19:00,
2013-08-29 21:24:00,75.0,70.0,29.98,NNW,337,1.0,2.0,86,0.00,,,0.00,TxWx,2013-08-30 01:24:00,
2013-08-29 21:29:00,75.0,70.0,29.98,NNE,22,1.0,2.0,86,0.00,,,0.00,TxWx,2013-08-30 01:29:00,
2013-08-29 21:34:00,75.0,70.0,29.98,NW,315,3.0,4.0,86,0.00,,,0.00,TxWx,2013-08-30 01:34:00,
2013-08-29 21:39:00,75.0,71.0,29.97,NNW,337,1.0,3.0,86,0.00,,,0.00,TxWx,2013-08-30 01:39:00,
2013-08-29 21:45:00,74.0,70.0,29.97,NNE,22,1.0,1.0,86,0.00,,,0.00,TxWx,2013-08-30 01:45:00,
2013-08-29 21:50:00,74.0,70.0,29.97,NNE,22,1.0,1.0,86,0.00,,,0.00,TxWx,2013-08-30 01:50:00,
2013-08-29 21:55:00,74.0,70.0,29.97,NNW,337,1.0,1.0,86,0.00,,,0.00,TxWx,2013-08-30 01:55:00,
2013-08-29 22:00:00,74.0,70.0,29.97,NNW,337,1.0,1.0,86,0.00,,,0.00,TxWx,2013-08-30 02:00:00,
2013-08-29 22:05:00,74.0,70.0,29.98,ENE,67,1.0,1.0,87,0.00,,,0.00,TxWx,2013-08-30 02:05:00,
2013-08-29 22:10:00,74.0,70.0,29.98,ESE,112,1.0,1.0,87,0.00,,,0.00,TxWx,2013-08-30 02:10:00,
2013-08-29 22:15:00,74.0,70.0,29.98,NNE,22,1.0,1.0,87,0.00,,,0.00,TxWx,2013-08-30 02:15:00,
2013-08-29 22:21:00,73.0,69.0,29.98,North,0,3.0,3.0,87,0.00,,,0.00,TxWx,2013-08-30 02:21:00,
2013-08-29 22:26:00,73.0,69.0,29.98,NNE,22,3.0,3.0,87,0.00,,,0.00,TxWx,2013-08-30 02:26:00,
2013-08-29 22:31:00,73.0,69.0,29.98,NNE,22,3.0,3.0,88,0.00,,,0.00,TxWx,2013-08-30 02:31:00,
2013-08-29 22:36:00,73.0,69.0,29.98,NNE,22,2.0,2.0,88,0.00,,,0.00,TxWx,2013-08-30 02:36:00,
2013-08-29 22:41:00,73.0,69.0,29.98,NE,45,1.0,1.0,88,0.00,,,0.00,TxWx,2013-08-30 02:41:00,
2013-08-29 22:46:00,73.0,69.0,29.98,ENE,67,1.0,1.0,88,0.00,,,0.00,TxWx,2013-08-30 02:46:00,
2013-08-29 22:51:00,73.0,69.0,29.98,NNW,337,1.0,2.0,88,0.00,,,0.00,TxWx,2013-08-30 02:51:00,
2013-08-29 22:56:00,73.0,69.0,29.97,NNW,337,1.0,2.0,88,0.00,,,0.00,TxWx,2013-08-30 02:56:00,
2013-08-29 23:02:00,73.0,69.0,29.97,NE,45,3.0,3.0,88,0.00,,,0.00,TxWx,2013-08-30 03:02:00,
2013-08-29 23:07:00,73.0,69.0,29.97,NNE,22,1.0,2.0,88,0.00,,,0.00,TxWx,2013-08-30 03:07:00,
2013-08-29 23:12:00,73.0,69.0,29.97,North,0,1.0,3.0,88,0.00,,,0.00,TxWx,2013-08-30 03:12:00,
2013-08-29 23:17:00,73.0,69.0,29.98,West,270,1.0,2.0,88,0.00,,,0.00,TxWx,2013-08-30 03:17:00,
2013-08-29 23:22:00,73.0,69.0,29.97,NNW,337,2.0,2.0,88,0.00,,,0.00,TxWx,2013-08-30 03:22:00,
2013-08-29 23:27:00,73.0,69.0,29.97,WNW,292,1.0,1.0,88,0.00,,,0.00,TxWx,2013-08-30 03:27:00,
2013-08-29 23:32:00,73.0,69.0,29.97,NNW,337,2.0,3.0,88,0.00,,,0.00,TxWx,2013-08-30 03:32:00,
2013-08-29 23:37:00,73.0,69.0,29.98,NW,315,1.0,1.0,88,0.00,,,0.00,TxWx,2013-08-30 03:37:00,
2013-08-29 23:43:00,73.0,69.0,29.98,NNW,337,1.0,1.0,88,0.00,,,0.00,TxWx,2013-08-30 03:43:00,
2013-08-29 23:48:00,73.0,69.0,29.98,NW,315,1.0,1.0,88,0.00,,,0.00,TxWx,2013-08-30 03:48:00,
2013-08-29 23:53:00,73.0,69.0,29.98,NNW,337,1.0,1.0,88,0.00,,,0.00,TxWx,2013-08-30 03:53:00,
2013-08-29 23:58:00,73.0,69.0,29.98,NW,315,1.0,1.0,88,0.00,,,0.00,TxWx,2013-08-30 03:58:00,